Terminal Aerodrome Forecast
Issued by NWS Brownsville, TX

Home | Current Version | Previous Version | Text Only | Print | Product List | Glossary On
Versions: 1 2 3 4 5 6 7 8 9 10 11 12 13 14 15 16 17 18 19 20 21 22
000
FTUS44 KBRO 301736
TAFHRL
TAF
KHRL 301736Z 3018/0118 04006KT 6SM HZ SCT035
     FM302000 09010KT P6SM SCT040
     FM010200 12005KT 5SM HZ SCT020
     FM010400 13004KT 3SM BR OVC012
     FM010600 12003KT 2SM BR OVC008
     FM011500 13010KT 5SM HZ BKN025=

USA.gov is the U.S. government's official web portal to all federal, state and local government web resources and services.